Time;durP1;ratioP1;P1;durP2;ratioP2;P2;SDS_P1;SDS_P2;PMS_P1;PMS_P2;Temp;Humidity;BMP_temperature;BMP_pressure;BME280_temperature;BME280_humidity;BME280_pressure;Samples;Min_cycle;Max_cycle;Signal;HPM_P1;HPM_P2
2022/05/28 00:00:07;;;;;;;;;8.75;6.25;;;;;;;;5033185;28;45505;-66
2022/05/28 00:02:32;;;;;;;;;7.00;7.00;;;;;;;;5033205;28;45425;-66
2022/05/28 00:04:57;;;;;;;;;5.75;5.75;;;;;;;;5015464;28;45453;-66
2022/05/28 00:07:22;;;;;;;;;9.00;8.00;;;;;;;;5015061;28;47610;-66
2022/05/28 00:09:48;;;;;;;;;8.50;6.75;;;;;;;;5026282;28;45426;-66
2022/05/28 00:12:13;;;;;;;;;6.00;4.75;;;;;;;;5032886;28;45519;-66
2022/05/28 00:14:39;;;;;;;;;8.25;8.00;;;;;;;;5003772;28;45486;-66
2022/05/28 00:17:05;;;;;;;;;8.75;8.50;;;;;;;;5021142;28;45756;-68
2022/05/28 00:19:30;;;;;;;;;8.25;8.25;;;;;;;;5033167;28;45379;-66
2022/05/28 00:21:55;;;;;;;;;4.75;4.75;;;;;;;;5017648;28;45562;-67
2022/05/28 00:24:20;;;;;;;;;6.75;5.50;;;;;;;;5023668;28;45533;-69
2022/05/28 00:26:45;;;;;;;;;6.50;5.25;;;;;;;;5010686;28;47672;-66
2022/05/28 00:29:11;;;;;;;;;5.50;5.50;;;;;;;;5000568;28;45472;-66
2022/05/28 00:31:36;;;;;;;;;9.50;7.50;;;;;;;;5028736;28;45390;-67
2022/05/28 00:34:01;;;;;;;;;5.75;5.75;;;;;;;;5029236;28;45370;-66
2022/05/28 00:36:26;;;;;;;;;8.00;7.00;;;;;;;;5031161;28;45573;-67
2022/05/28 00:38:52;;;;;;;;;6.50;6.50;;;;;;;;5032866;28;45393;-65
2022/05/28 00:41:17;;;;;;;;;10.00;8.25;;;;;;;;5031596;28;45393;-66
2022/05/28 00:43:43;;;;;;;;;9.00;8.00;;;;;;;;5013802;28;45385;-66
2022/05/28 00:46:23;;;;;;;;;8.00;4.50;;;;;;;;4995063;28;48437;-67
2022/05/28 00:48:50;;;;;;;;;8.25;7.50;;;;;;;;5012533;28;45427;-66
2022/05/28 00:51:17;;;;;;;;;9.00;7.25;;;;;;;;5012619;28;45618;-67
2022/05/28 00:53:43;;;;;;;;;5.75;5.75;;;;;;;;5007978;28;45439;-67
2022/05/28 00:56:09;;;;;;;;;5.75;5.75;;;;;;;;4997970;28;46370;-67
2022/05/28 00:58:34;;;;;;;;;8.00;7.00;;;;;;;;5023212;28;45652;-66
2022/05/28 01:01:00;;;;;;;;;8.75;6.00;;;;;;;;5010413;28;45390;-67
2022/05/28 01:03:28;;;;;;;;;6.75;6.75;;;;;;;;4997245;28;45467;-67
2022/05/28 01:06:03;;;;;;;;;6.50;6.50;;;;;;;;5006517;28;46552;-65
2022/05/28 01:08:38;;;;;;;;;10.50;6.00;;;;;;;;5009094;28;45471;-64
2022/05/28 01:11:22;;;;;;;;;7.75;7.75;;;;;;;;4993405;28;46077;-66
2022/05/28 01:13:54;;;;;;;;;7.00;7.00;;;;;;;;4995926;28;45427;-66
2022/05/28 01:16:24;;;;;;;;;8.25;7.00;;;;;;;;4992846;28;46647;-66
2022/05/28 01:18:52;;;;;;;;;6.00;6.00;;;;;;;;5010772;28;45689;-66
2022/05/28 01:21:41;;;;;;;;;9.25;5.75;;;;;;;;5010134;28;45489;-65
2022/05/28 01:24:17;;;;;;;;;8.50;6.25;;;;;;;;4949963;28;45501;-66
2022/05/28 01:26:42;;;;;;;;;9.50;8.00;;;;;;;;4950694;28;45878;-66
2022/05/28 01:29:10;;;;;;;;;7.00;7.00;;;;;;;;4963309;28;45516;-65
2022/05/28 01:31:36;;;;;;;;;6.25;4.25;;;;;;;;4934115;28;45469;-66
2022/05/28 01:34:04;;;;;;;;;6.00;6.00;;;;;;;;4968491;28;45577;-66
2022/05/28 01:36:30;;;;;;;;;9.50;6.00;;;;;;;;4934996;28;47472;-65
2022/05/28 01:38:55;;;;;;;;;11.50;8.75;;;;;;;;4949830;28;45558;-66
2022/05/28 01:41:22;;;;;;;;;7.50;6.50;;;;;;;;4950818;28;45930;-68
2022/05/28 01:43:49;;;;;;;;;6.75;6.75;;;;;;;;4933709;28;45789;-66
2022/05/28 01:46:16;;;;;;;;;7.75;6.50;;;;;;;;4952232;28;45732;-67
2022/05/28 01:48:42;;;;;;;;;6.50;5.50;;;;;;;;4932667;28;45874;-66
2022/05/28 01:51:08;;;;;;;;;7.75;5.50;;;;;;;;4926638;28;45538;-65
2022/05/28 01:56:19;;;;;;;;;9.00;9.00;;;;;;;;4950476;28;45769;-66
2022/05/28 01:58:44;;;;;;;;;6.25;6.25;;;;;;;;4950801;28;45670;-66
2022/05/28 02:01:10;;;;;;;;;8.00;8.00;;;;;;;;4981173;28;45412;-66
2022/05/28 02:03:37;;;;;;;;;7.25;7.25;;;;;;;;4990973;28;45474;-66
2022/05/28 02:06:02;;;;;;;;;7.00;6.00;;;;;;;;4993525;28;49843;-65
2022/05/28 02:08:29;;;;;;;;;10.50;7.25;;;;;;;;5001572;28;45442;-66
2022/05/28 02:11:01;;;;;;;;;8.25;6.00;;;;;;;;5011903;28;45462;-65
2022/05/28 02:13:34;;;;;;;;;10.75;8.75;;;;;;;;4991451;28;45718;-66
2022/05/28 02:16:05;;;;;;;;;7.00;7.00;;;;;;;;5007220;28;46490;-65
2022/05/28 02:18:30;;;;;;;;;8.00;8.00;;;;;;;;5012160;28;45553;-66
2022/05/28 02:21:28;;;;;;;;;5.75;5.75;;;;;;;;4990165;28;45434;-66
2022/05/28 02:24:00;;;;;;;;;8.25;8.25;;;;;;;;4945993;28;47982;-65
2022/05/28 02:26:31;;;;;;;;;9.00;8.00;;;;;;;;4951254;28;46479;-66
2022/05/28 02:28:58;;;;;;;;;8.75;8.75;;;;;;;;4967311;28;45457;-66
2022/05/28 02:31:25;;;;;;;;;10.00;8.00;;;;;;;;4951195;28;45353;-66
2022/05/28 02:33:50;;;;;;;;;9.00;7.75;;;;;;;;4933541;28;45564;-64
2022/05/28 02:36:17;;;;;;;;;11.50;10.25;;;;;;;;4950553;28;45979;-65
2022/05/28 02:38:42;;;;;;;;;7.25;7.25;;;;;;;;4950983;28;45535;-66
2022/05/28 02:41:08;;;;;;;;;10.50;10.25;;;;;;;;4934716;28;45486;-65
2022/05/28 02:43:33;;;;;;;;;11.00;11.00;;;;;;;;4950794;28;45673;-66
2022/05/28 02:45:58;;;;;;;;;10.50;9.25;;;;;;;;4951412;28;45607;-66
2022/05/28 02:48:24;;;;;;;;;9.25;8.50;;;;;;;;4950765;28;47789;-66
2022/05/28 02:50:49;;;;;;;;;5.00;5.00;;;;;;;;4953487;28;45544;-66
2022/05/28 02:53:14;;;;;;;;;8.75;7.00;;;;;;;;4954398;28;45580;-65
2022/05/28 02:55:40;;;;;;;;;12.00;10.25;;;;;;;;4954461;28;45689;-66
2022/05/28 02:58:05;;;;;;;;;9.50;8.25;;;;;;;;4938898;28;45470;-65
2022/05/28 03:00:30;;;;;;;;;10.75;7.50;;;;;;;;5010258;28;45410;-65
2022/05/28 03:02:56;;;;;;;;;10.25;9.00;;;;;;;;5014373;28;45375;-64
2022/05/28 03:05:22;;;;;;;;;7.00;6.75;;;;;;;;5014149;28;45622;-66
2022/05/28 03:07:47;;;;;;;;;9.25;9.00;;;;;;;;4996454;28;45638;-65
2022/05/28 03:10:13;;;;;;;;;6.00;6.00;;;;;;;;5011715;28;45404;-64
2022/05/28 03:12:38;;;;;;;;;9.50;8.50;;;;;;;;5013782;28;45592;-65
2022/05/28 03:15:04;;;;;;;;;9.50;6.00;;;;;;;;5013923;28;45601;-67
2022/05/28 03:17:29;;;;;;;;;9.75;8.75;;;;;;;;5013908;28;45402;-66
2022/05/28 03:19:55;;;;;;;;;8.50;8.50;;;;;;;;5014314;28;45602;-66
2022/05/28 03:22:20;;;;;;;;;11.00;8.00;;;;;;;;5012135;28;45584;-65
2022/05/28 03:24:45;;;;;;;;;8.75;8.75;;;;;;;;5011083;28;47501;-65
2022/05/28 03:27:11;;;;;;;;;9.75;9.75;;;;;;;;5009500;28;45529;-65
2022/05/28 03:29:36;;;;;;;;;10.75;10.75;;;;;;;;4992743;28;45495;-66
2022/05/28 03:32:01;;;;;;;;;7.00;7.00;;;;;;;;5001431;28;45548;-66
2022/05/28 03:34:27;;;;;;;;;8.75;7.75;;;;;;;;5013961;28;46515;-66
2022/05/28 03:36:52;;;;;;;;;7.00;7.00;;;;;;;;4997868;28;46284;-67
2022/05/28 03:39:17;;;;;;;;;9.50;8.00;;;;;;;;4996238;28;45685;-64
2022/05/28 03:41:42;;;;;;;;;9.25;6.75;;;;;;;;5013560;28;48264;-65
2022/05/28 03:44:08;;;;;;;;;5.00;5.00;;;;;;;;5018481;28;45635;-65
2022/05/28 03:46:34;;;;;;;;;10.00;10.00;;;;;;;;5015725;28;45458;-66
2022/05/28 03:49:03;;;;;;;;;8.00;7.00;;;;;;;;5037142;28;45397;-65
2022/05/28 03:51:28;;;;;;;;;9.00;9.00;;;;;;;;5014193;28;45478;-65
2022/05/28 03:53:54;;;;;;;;;8.25;8.25;;;;;;;;5028325;28;48453;-65
2022/05/28 03:56:20;;;;;;;;;9.50;8.75;;;;;;;;5021956;28;45689;-66
2022/05/28 03:58:45;;;;;;;;;12.25;9.50;;;;;;;;5033712;28;45592;-64
2022/05/28 04:01:10;;;;;;;;;8.50;8.25;;;;;;;;5015889;28;46081;-65
2022/05/28 04:03:36;;;;;;;;;9.75;9.50;;;;;;;;5013105;28;47633;-65
2022/05/28 04:06:02;;;;;;;;;10.50;10.00;;;;;;;;5009485;28;45505;-65
2022/05/28 04:08:27;;;;;;;;;7.00;6.25;;;;;;;;5031528;28;45631;-64
2022/05/28 04:10:52;;;;;;;;;9.75;8.00;;;;;;;;5031911;28;45494;-66
2022/05/28 04:13:18;;;;;;;;;13.25;12.25;;;;;;;;5013615;28;48974;-65
2022/05/28 04:15:43;;;;;;;;;17.00;12.75;;;;;;;;5034102;28;45630;-65
2022/05/28 04:18:08;;;;;;;;;10.25;9.00;;;;;;;;5032726;28;45790;-67
2022/05/28 04:20:34;;;;;;;;;10.50;9.50;;;;;;;;5014633;28;45530;-65
2022/05/28 04:22:59;;;;;;;;;9.75;9.75;;;;;;;;5026447;28;46677;-67
2022/05/28 04:25:24;;;;;;;;;9.75;9.75;;;;;;;;5029353;28;46131;-66
2022/05/28 04:27:50;;;;;;;;;12.75;11.25;;;;;;;;5026776;28;45480;-66
2022/05/28 04:30:15;;;;;;;;;14.50;14.50;;;;;;;;5026846;28;45474;-65
2022/05/28 04:32:40;;;;;;;;;10.75;10.50;;;;;;;;5027733;28;48905;-66
2022/05/28 04:35:07;;;;;;;;;10.50;9.00;;;;;;;;5029492;28;45489;-66
2022/05/28 04:37:33;;;;;;;;;10.00;9.00;;;;;;;;5028950;28;49853;-66
2022/05/28 04:39:58;;;;;;;;;7.00;7.00;;;;;;;;5030845;28;45501;-66
2022/05/28 04:42:23;;;;;;;;;10.75;9.75;;;;;;;;5012331;28;48432;-65
2022/05/28 04:44:48;;;;;;;;;9.75;9.50;;;;;;;;5017917;28;45780;-65
2022/05/28 04:47:14;;;;;;;;;10.00;8.00;;;;;;;;4996600;28;45560;-65
2022/05/28 04:49:39;;;;;;;;;9.25;6.50;;;;;;;;5009383;28;45550;-65
2022/05/28 04:52:04;;;;;;;;;3.75;3.75;;;;;;;;5011195;28;45541;-66
2022/05/28 04:54:30;;;;;;;;;12.75;11.75;;;;;;;;5006553;28;45398;-65
2022/05/28 04:56:55;;;;;;;;;10.00;10.00;;;;;;;;5006116;28;45633;-65
2022/05/28 04:59:20;;;;;;;;;15.75;12.00;;;;;;;;5009518;28;45420;-65
2022/05/28 05:01:45;;;;;;;;;16.75;16.50;;;;;;;;5011205;28;46922;-64
2022/05/28 05:04:11;;;;;;;;;14.25;14.25;;;;;;;;5010334;28;45379;-66
2022/05/28 05:06:36;;;;;;;;;13.75;12.75;;;;;;;;5015044;28;45531;-65
2022/05/28 05:09:02;;;;;;;;;11.75;10.75;;;;;;;;4998863;28;45604;-66
2022/05/28 05:11:27;;;;;;;;;13.50;11.75;;;;;;;;4999463;28;45702;-64
2022/05/28 05:13:53;;;;;;;;;13.00;11.50;;;;;;;;4996521;28;45630;-65
2022/05/28 05:16:18;;;;;;;;;14.50;11.50;;;;;;;;4997276;28;45421;-65
2022/05/28 05:18:43;;;;;;;;;14.25;11.75;;;;;;;;4999283;28;45515;-66
2022/05/28 05:21:11;;;;;;;;;12.25;8.00;;;;;;;;4987292;28;47791;-65
2022/05/28 05:23:37;;;;;;;;;15.00;14.25;;;;;;;;4999951;28;45430;-65
2022/05/28 05:26:07;;;;;;;;;10.00;8.50;;;;;;;;5008852;28;45507;-64
2022/05/28 05:28:32;;;;;;;;;12.25;10.00;;;;;;;;4993675;28;46119;-67
2022/05/28 05:30:57;;;;;;;;;16.00;11.75;;;;;;;;5009707;28;46177;-64
2022/05/28 05:33:23;;;;;;;;;13.50;12.25;;;;;;;;5011664;28;46124;-65
2022/05/28 05:35:48;;;;;;;;;11.00;10.00;;;;;;;;5007162;28;45365;-66
2022/05/28 05:38:13;;;;;;;;;16.00;13.50;;;;;;;;4999729;28;45502;-64
2022/05/28 05:40:38;;;;;;;;;15.50;12.00;;;;;;;;5011812;28;46016;-65
2022/05/28 05:43:04;;;;;;;;;11.50;10.00;;;;;;;;4979609;28;45800;-66
2022/05/28 05:45:30;;;;;;;;;13.25;12.25;;;;;;;;5011627;28;45528;-66
2022/05/28 05:47:55;;;;;;;;;15.25;13.50;;;;;;;;5011412;28;45453;-66
2022/05/28 05:50:21;;;;;;;;;12.75;11.00;;;;;;;;4993573;28;48459;-65
2022/05/28 05:52:46;;;;;;;;;14.25;12.25;;;;;;;;5011756;28;45987;-66
2022/05/28 05:55:11;;;;;;;;;15.25;14.00;;;;;;;;4995494;28;45665;-65
2022/05/28 05:57:36;;;;;;;;;14.00;12.00;;;;;;;;5002921;28;45800;-64
2022/05/28 06:00:02;;;;;;;;;11.25;10.50;;;;;;;;4993946;28;47711;-64
2022/05/28 06:02:27;;;;;;;;;12.00;12.00;;;;;;;;4992049;28;45394;-66
2022/05/28 06:04:53;;;;;;;;;11.00;11.00;;;;;;;;5011663;28;45364;-65
2022/05/28 06:07:19;;;;;;;;;10.50;9.00;;;;;;;;5012235;28;45387;-65
2022/05/28 06:09:44;;;;;;;;;12.50;9.50;;;;;;;;5012669;28;45561;-65
2022/05/28 06:12:09;;;;;;;;;11.00;10.00;;;;;;;;5006644;28;45473;-65
2022/05/28 06:14:34;;;;;;;;;10.75;10.75;;;;;;;;4984688;28;45451;-65
2022/05/28 06:16:59;;;;;;;;;12.50;11.25;;;;;;;;5009938;28;45848;-65
2022/05/28 06:19:25;;;;;;;;;12.50;12.50;;;;;;;;4992234;28;47420;-66
2022/05/28 06:21:50;;;;;;;;;14.75;13.50;;;;;;;;5008139;28;46066;-66
2022/05/28 06:24:15;;;;;;;;;12.50;12.00;;;;;;;;4990796;28;45466;-65
2022/05/28 06:26:40;;;;;;;;;11.00;11.00;;;;;;;;5001616;28;45470;-65
2022/05/28 06:29:06;;;;;;;;;15.25;13.25;;;;;;;;5011235;28;46042;-64
2022/05/28 06:31:31;;;;;;;;;14.25;13.50;;;;;;;;4990632;28;46054;-66
2022/05/28 06:33:56;;;;;;;;;14.00;12.50;;;;;;;;5006290;28;45379;-66
2022/05/28 06:36:21;;;;;;;;;12.00;11.00;;;;;;;;5010708;28;45466;-66
2022/05/28 06:38:46;;;;;;;;;12.50;11.50;;;;;;;;5010553;28;46262;-66
2022/05/28 06:41:12;;;;;;;;;11.00;10.00;;;;;;;;5010953;28;45434;-66
2022/05/28 06:43:37;;;;;;;;;11.00;9.75;;;;;;;;5009639;28;45980;-66
2022/05/28 06:46:04;;;;;;;;;10.25;9.25;;;;;;;;5019512;28;45667;-67
2022/05/28 06:48:29;;;;;;;;;15.75;14.50;;;;;;;;5016047;28;48274;-68
2022/05/28 06:51:04;;;;;;;;;10.00;10.00;;;;;;;;5010320;28;46037;-67
2022/05/28 06:53:43;;;;;;;;;14.25;13.75;;;;;;;;5029036;28;45489;-66
2022/05/28 06:56:09;;;;;;;;;11.75;11.00;;;;;;;;5041230;28;49931;-67
2022/05/28 06:58:35;;;;;;;;;12.50;12.50;;;;;;;;5024229;28;45610;-66
2022/05/28 07:01:00;;;;;;;;;15.50;12.50;;;;;;;;5022380;28;45545;-65
2022/05/28 07:03:26;;;;;;;;;12.25;12.00;;;;;;;;5025188;28;45478;-67
2022/05/28 07:05:52;;;;;;;;;11.50;9.50;;;;;;;;5005699;28;45823;-67
2022/05/28 07:08:17;;;;;;;;;13.75;12.75;;;;;;;;5013578;28;46526;-68
2022/05/28 07:10:44;;;;;;;;;12.75;12.75;;;;;;;;5023559;28;45417;-67
2022/05/28 07:13:10;;;;;;;;;13.75;11.75;;;;;;;;5025670;28;45562;-65
2022/05/28 07:15:36;;;;;;;;;13.00;12.50;;;;;;;;5018528;28;45610;-66
2022/05/28 07:18:01;;;;;;;;;14.00;10.50;;;;;;;;5024201;28;45586;-67
2022/05/28 07:20:26;;;;;;;;;13.75;11.00;;;;;;;;5028790;28;45594;-67
2022/05/28 07:22:51;;;;;;;;;12.25;10.25;;;;;;;;5027399;28;45491;-67
2022/05/28 07:25:16;;;;;;;;;14.00;12.75;;;;;;;;5029266;28;45600;-65
2022/05/28 07:27:42;;;;;;;;;16.25;14.75;;;;;;;;5043950;28;45519;-67
2022/05/28 07:30:08;;;;;;;;;14.00;13.25;;;;;;;;5017527;28;45390;-68
2022/05/28 07:32:34;;;;;;;;;14.25;13.25;;;;;;;;5003511;28;45437;-65
2022/05/28 07:34:59;;;;;;;;;12.00;11.75;;;;;;;;5022936;28;45641;-66
2022/05/28 07:37:25;;;;;;;;;13.75;13.00;;;;;;;;5022308;28;46377;-67
2022/05/28 07:39:50;;;;;;;;;12.25;10.50;;;;;;;;5019382;28;46161;-67
2022/05/28 07:42:16;;;;;;;;;12.75;9.00;;;;;;;;5017612;28;45351;-67
2022/05/28 07:44:41;;;;;;;;;11.00;9.50;;;;;;;;5006024;28;45512;-66
2022/05/28 07:47:07;;;;;;;;;11.00;11.00;;;;;;;;5006470;28;45801;-66
2022/05/28 07:49:34;;;;;;;;;13.75;12.00;;;;;;;;5012143;28;45757;-67
2022/05/28 07:51:59;;;;;;;;;14.75;12.00;;;;;;;;4996055;28;45747;-66
2022/05/28 07:54:24;;;;;;;;;12.50;10.50;;;;;;;;5000759;28;45541;-67
2022/05/28 07:56:49;;;;;;;;;11.00;9.50;;;;;;;;5012015;28;46491;-68
2022/05/28 07:59:14;;;;;;;;;17.00;13.50;;;;;;;;5012961;28;45601;-67
2022/05/28 08:01:40;;;;;;;;;13.25;11.75;;;;;;;;4994877;28;45678;-68
2022/05/28 08:04:06;;;;;;;;;17.25;13.75;;;;;;;;5009811;28;45490;-67
2022/05/28 08:06:31;;;;;;;;;9.50;9.50;;;;;;;;5007381;28;47610;-66
2022/05/28 08:08:57;;;;;;;;;15.25;14.00;;;;;;;;4989179;28;46219;-66
2022/05/28 08:11:22;;;;;;;;;10.75;9.75;;;;;;;;5004031;28;45854;-66
2022/05/28 08:13:47;;;;;;;;;11.75;9.25;;;;;;;;4992543;28;45610;-67
2022/05/28 08:16:13;;;;;;;;;11.50;11.50;;;;;;;;5008273;28;48410;-65
2022/05/28 08:18:39;;;;;;;;;12.25;10.75;;;;;;;;5008703;28;45965;-67
2022/05/28 08:23:48;;;;;;;;;14.25;13.00;;;;;;;;5006600;28;45534;-67
2022/05/28 08:26:15;;;;;;;;;9.75;7.00;;;;;;;;4997862;28;45651;-67
2022/05/28 08:28:40;;;;;;;;;14.00;11.50;;;;;;;;4994214;28;45608;-66
2022/05/28 08:31:06;;;;;;;;;11.00;11.00;;;;;;;;5010941;28;45403;-67
2022/05/28 08:33:32;;;;;;;;;9.25;9.25;;;;;;;;5000671;28;45561;-66
2022/05/28 08:35:58;;;;;;;;;11.00;10.25;;;;;;;;5002487;28;47714;-68
2022/05/28 08:38:24;;;;;;;;;14.50;10.25;;;;;;;;4992904;28;45615;-67
2022/05/28 08:41:09;;;;;;;;;16.50;9.50;;;;;;;;4993842;28;45476;-66
2022/05/28 08:43:36;;;;;;;;;8.75;8.75;;;;;;;;4998297;28;45545;-68
2022/05/28 08:46:03;;;;;;;;;11.75;11.00;;;;;;;;5002287;28;45879;-68
2022/05/28 08:48:38;;;;;;;;;9.50;9.50;;;;;;;;5009959;28;45518;-67
2022/05/28 08:51:16;;;;;;;;;11.00;8.00;;;;;;;;5000789;28;45558;-65
2022/05/28 08:53:50;;;;;;;;;11.75;10.25;;;;;;;;4987408;28;45744;-68
2022/05/28 08:56:17;;;;;;;;;7.50;7.25;;;;;;;;5009817;28;47948;-69
2022/05/28 08:58:44;;;;;;;;;5.25;4.25;;;;;;;;4994572;28;45431;-66
2022/05/28 09:01:28;;;;;;;;;12.00;10.50;;;;;;;;5011776;28;47407;-67
2022/05/28 09:03:59;;;;;;;;;9.00;9.00;;;;;;;;5011470;28;45432;-66
2022/05/28 09:06:29;;;;;;;;;7.50;6.50;;;;;;;;5010920;28;46595;-65
2022/05/28 09:08:56;;;;;;;;;7.75;7.75;;;;;;;;5009713;28;45605;-68
2022/05/28 09:11:36;;;;;;;;;9.00;8.00;;;;;;;;5007615;28;45474;-68
2022/05/28 09:14:20;;;;;;;;;6.50;6.50;;;;;;;;5006243;28;45736;-68
2022/05/28 09:16:46;;;;;;;;;8.75;7.25;;;;;;;;4991478;28;47731;-68
2022/05/28 09:19:17;;;;;;;;;8.00;6.25;;;;;;;;4991506;28;45923;-69
2022/05/28 09:21:43;;;;;;;;;6.00;4.50;;;;;;;;5006381;28;45507;-69
2022/05/28 09:24:17;;;;;;;;;9.00;6.25;;;;;;;;5007621;28;45435;-69
2022/05/28 09:26:50;;;;;;;;;7.25;7.25;;;;;;;;4985691;28;48001;-69
2022/05/28 09:29:28;;;;;;;;;5.25;5.25;;;;;;;;4999657;28;45444;-68
2022/05/28 09:31:59;;;;;;;;;6.25;6.25;;;;;;;;4995713;28;45612;-67
2022/05/28 09:34:31;;;;;;;;;5.75;5.75;;;;;;;;4978909;28;45332;-67
2022/05/28 09:36:56;;;;;;;;;6.50;6.00;;;;;;;;4981853;28;46980;-67
2022/05/28 09:39:33;;;;;;;;;7.25;5.00;;;;;;;;5005586;28;45458;-68
2022/05/28 09:42:04;;;;;;;;;5.75;4.00;;;;;;;;5007323;28;45423;-67
2022/05/28 09:44:48;;;;;;;;;5.75;5.00;;;;;;;;5014920;28;45715;-66
2022/05/28 09:47:14;;;;;;;;;5.75;5.00;;;;;;;;5031535;28;46767;-67
2022/05/28 09:49:50;;;;;;;;;6.25;5.25;;;;;;;;5032387;28;49887;-67
2022/05/28 09:52:21;;;;;;;;;6.00;6.00;;;;;;;;5015287;28;45532;-67
2022/05/28 09:54:46;;;;;;;;;5.25;4.25;;;;;;;;5025790;28;45558;-68
2022/05/28 09:57:20;;;;;;;;;4.00;4.00;;;;;;;;5033791;28;46067;-67
2022/05/28 09:59:49;;;;;;;;;6.00;5.00;;;;;;;;5022831;28;45371;-68
2022/05/28 10:02:14;;;;;;;;;5.50;5.50;;;;;;;;5031678;28;45475;-68
2022/05/28 10:04:48;;;;;;;;;7.00;5.00;;;;;;;;5013561;28;45421;-67
2022/05/28 10:07:14;;;;;;;;;5.75;5.00;;;;;;;;5032569;28;46805;-68
2022/05/28 10:09:50;;;;;;;;;5.00;5.00;;;;;;;;5030594;28;45510;-68
2022/05/28 10:12:23;;;;;;;;;8.50;6.25;;;;;;;;5029990;28;45494;-68
2022/05/28 10:15:15;;;;;;;;;5.75;4.75;;;;;;;;5012519;28;45513;-68
2022/05/28 10:17:42;;;;;;;;;6.75;6.75;;;;;;;;5009710;28;46935;-67
2022/05/28 10:20:18;;;;;;;;;5.50;4.00;;;;;;;;5031273;28;45425;-66
2022/05/28 10:22:44;;;;;;;;;8.75;7.00;;;;;;;;5015607;28;45514;-67
2022/05/28 10:25:22;;;;;;;;;5.00;5.00;;;;;;;;5033219;28;45421;-67
2022/05/28 10:27:49;;;;;;;;;5.00;3.25;;;;;;;;5032428;28;45488;-68
2022/05/28 10:30:33;;;;;;;;;5.00;5.00;;;;;;;;5030922;28;45556;-67
2022/05/28 10:33:01;;;;;;;;;3.75;3.75;;;;;;;;5031056;28;45431;-68
2022/05/28 10:35:28;;;;;;;;;4.25;3.00;;;;;;;;5013594;28;45505;-67
2022/05/28 10:38:05;;;;;;;;;4.50;4.50;;;;;;;;5030571;28;46113;-67
2022/05/28 10:40:30;;;;;;;;;4.50;3.50;;;;;;;;5006793;28;46336;-66
2022/05/28 10:43:01;;;;;;;;;5.75;3.75;;;;;;;;5020938;28;45449;-66
2022/05/28 10:45:33;;;;;;;;;4.25;4.25;;;;;;;;5025568;28;45431;-66
2022/05/28 10:47:58;;;;;;;;;3.25;2.50;;;;;;;;5022127;28;46050;-66
2022/05/28 10:50:24;;;;;;;;;3.75;3.75;;;;;;;;5023496;28;45807;-67
2022/05/28 10:52:49;;;;;;;;;2.50;1.75;;;;;;;;5029593;28;45711;-67
2022/05/28 10:55:23;;;;;;;;;3.00;3.00;;;;;;;;5018118;28;45720;-67
2022/05/28 10:58:07;;;;;;;;;2.75;2.75;;;;;;;;5026799;28;45553;-66
2022/05/28 11:00:45;;;;;;;;;3.00;3.00;;;;;;;;5017793;28;45449;-67
2022/05/28 11:03:30;;;;;;;;;3.00;3.00;;;;;;;;5025884;28;45364;-67
2022/05/28 11:06:14;;;;;;;;;5.75;5.75;;;;;;;;5023344;28;45520;-68
2022/05/28 11:08:53;;;;;;;;;3.00;3.00;;;;;;;;5003879;28;46490;-67
2022/05/28 11:11:38;;;;;;;;;3.00;3.00;;;;;;;;5012657;28;46197;-67
2022/05/28 11:14:22;;;;;;;;;2.00;2.00;;;;;;;;5024415;28;45442;-68
2022/05/28 11:17:20;;;;;;;;;3.25;3.25;;;;;;;;5033134;28;45556;-67
2022/05/28 11:19:54;;;;;;;;;2.00;2.00;;;;;;;;4982140;28;46171;-67
2022/05/28 11:22:38;;;;;;;;;2.00;2.00;;;;;;;;4992257;28;45888;-66
2022/05/28 11:25:19;;;;;;;;;2.00;2.00;;;;;;;;4989518;28;45647;-67
2022/05/28 11:28:03;;;;;;;;;2.25;2.25;;;;;;;;4994570;28;45416;-65
2022/05/28 11:30:39;;;;;;;;;2.00;2.00;;;;;;;;4992370;28;46631;-66
2022/05/28 11:33:14;;;;;;;;;2.00;2.00;;;;;;;;4983640;28;45502;-66
2022/05/28 11:35:51;;;;;;;;;2.25;2.25;;;;;;;;4968956;28;45570;-68
2022/05/28 11:38:30;;;;;;;;;4.00;2.75;;;;;;;;4992685;28;45536;-67
2022/05/28 11:41:04;;;;;;;;;2.00;2.00;;;;;;;;4991993;28;47636;-68
2022/05/28 11:43:40;;;;;;;;;2.50;2.50;;;;;;;;4992925;28;45510;-68
2022/05/28 11:46:20;;;;;;;;;4.50;2.00;;;;;;;;4993269;28;45528;-68
2022/05/28 11:51:54;;;;;;;;;4.75;3.75;;;;;;;;4886629;29;45428;-67
2022/05/28 11:54:26;;;;;;;;;3.00;3.00;;;;;;;;4894350;28;45443;-68
2022/05/28 11:56:54;;;;;;;;;3.25;2.00;;;;;;;;4923674;28;45556;-67
2022/05/28 11:59:22;;;;;;;;;2.25;1.25;;;;;;;;4933017;28;45574;-68
2022/05/28 12:02:14;;;;;;;;;3.00;2.00;;;;;;;;4916047;28;46608;-67
2022/05/28 12:04:41;;;;;;;;;3.00;2.25;;;;;;;;4930517;28;46221;-66
2022/05/28 12:07:06;;;;;;;;;1.75;1.75;;;;;;;;4923414;28;45529;-68
2022/05/28 12:09:33;;;;;;;;;2.75;2.00;;;;;;;;4913431;28;45478;-68
2022/05/28 12:12:12;;;;;;;;;44.25;35.75;;;;;;;;4927476;28;46574;-68
2022/05/28 12:14:39;;;;;;;;;1.00;1.00;;;;;;;;4926914;28;45499;-69
2022/05/28 12:17:04;;;;;;;;;2.75;2.00;;;;;;;;4917608;28;45439;-67
2022/05/28 12:19:31;;;;;;;;;4.25;4.25;;;;;;;;4922876;28;45367;-67
2022/05/28 12:22:05;;;;;;;;;4.00;3.00;;;;;;;;4930772;28;46558;-68
2022/05/28 12:24:31;;;;;;;;;3.00;3.00;;;;;;;;4922937;28;45468;-68
2022/05/28 12:29:33;;;;;;;;;3.00;2.00;;;;;;;;4999404;28;45465;-69
2022/05/28 12:32:14;;;;;;;;;3.00;3.00;;;;;;;;5025618;28;46907;-68
2022/05/28 12:34:50;;;;;;;;;2.75;2.75;;;;;;;;5021864;28;46324;-68
2022/05/28 12:37:17;;;;;;;;;2.25;2.25;;;;;;;;5013347;28;45444;-68
2022/05/28 12:39:49;;;;;;;;;3.50;3.50;;;;;;;;5032252;28;45601;-68
2022/05/28 12:42:23;;;;;;;;;4.75;3.50;;;;;;;;5023276;28;45633;-68
2022/05/28 12:44:49;;;;;;;;;2.25;1.25;;;;;;;;5018533;28;45533;-68
2022/05/28 12:47:22;;;;;;;;;5.25;3.00;;;;;;;;5011873;28;45545;-67
2022/05/28 12:49:58;;;;;;;;;2.00;2.00;;;;;;;;5000838;28;45447;-67
2022/05/28 12:52:46;;;;;;;;;2.00;2.00;;;;;;;;5012759;28;45930;-68
2022/05/28 12:55:18;;;;;;;;;2.00;2.00;;;;;;;;4992004;28;45363;-66
2022/05/28 12:57:43;;;;;;;;;2.00;1.00;;;;;;;;4977746;28;45618;-67
2022/05/28 13:00:25;;;;;;;;;2.00;2.00;;;;;;;;4985096;28;46131;-68
2022/05/28 13:02:50;;;;;;;;;2.50;1.75;;;;;;;;4989773;28;47966;-68
2022/05/28 13:05:27;;;;;;;;;2.25;2.25;;;;;;;;4991057;28;45492;-68
2022/05/28 13:07:55;;;;;;;;;2.00;2.00;;;;;;;;4984038;28;45499;-68
2022/05/28 13:10:22;;;;;;;;;5.25;4.00;;;;;;;;5012464;28;45445;-68
2022/05/28 13:13:07;;;;;;;;;3.00;3.00;;;;;;;;5009160;28;46685;-68
2022/05/28 13:15:41;;;;;;;;;3.00;1.00;;;;;;;;4989673;28;45575;-68
2022/05/28 13:18:32;;;;;;;;;2.00;2.00;;;;;;;;5007678;28;45965;-68
2022/05/28 13:21:09;;;;;;;;;1.75;1.75;;;;;;;;5000238;28;45845;-67
2022/05/28 13:23:43;;;;;;;;;1.00;1.00;;;;;;;;5010166;28;46522;-68
2022/05/28 13:26:27;;;;;;;;;5.75;5.75;;;;;;;;5008347;28;45775;-68
2022/05/28 13:28:55;;;;;;;;;1.00;1.00;;;;;;;;5010835;28;45741;-68
2022/05/28 13:31:25;;;;;;;;;3.25;2.25;;;;;;;;4994227;28;45427;-68
2022/05/28 13:33:50;;;;;;;;;2.00;1.00;;;;;;;;5000286;28;45973;-67
2022/05/28 13:36:16;;;;;;;;;2.50;2.25;;;;;;;;5003899;28;45483;-68
2022/05/28 13:38:42;;;;;;;;;2.25;1.50;;;;;;;;5004247;28;45447;-69
2022/05/28 13:41:13;;;;;;;;;1.00;1.00;;;;;;;;5005217;28;45540;-68
2022/05/28 13:43:43;;;;;;;;;1.75;1.75;;;;;;;;4992711;28;47892;-68
2022/05/28 13:46:12;;;;;;;;;1.25;1.25;;;;;;;;5013229;28;45556;-68
2022/05/28 13:48:45;;;;;;;;;2.50;2.00;;;;;;;;4990103;28;45446;-68
2022/05/28 13:51:11;;;;;;;;;1.00;1.00;;;;;;;;4985430;28;45596;-68
2022/05/28 13:53:38;;;;;;;;;2.00;1.00;;;;;;;;4987991;28;48326;-69
2022/05/28 13:56:04;;;;;;;;;2.50;1.25;;;;;;;;5009629;28;45433;-68
2022/05/28 13:58:40;;;;;;;;;0.25;0.00;;;;;;;;5011902;28;45609;-68
2022/05/28 14:01:07;;;;;;;;;1.25;1.25;;;;;;;;5012847;28;45498;-67
2022/05/28 14:03:34;;;;;;;;;1.00;1.00;;;;;;;;5008986;28;46579;-68
2022/05/28 14:06:00;;;;;;;;;1.00;1.00;;;;;;;;5005573;28;45693;-67
2022/05/28 14:08:31;;;;;;;;;2.00;2.00;;;;;;;;4988696;28;45666;-67
2022/05/28 14:11:05;;;;;;;;;0.00;0.00;;;;;;;;5002844;28;45469;-67
2022/05/28 14:13:32;;;;;;;;;1.00;1.00;;;;;;;;5006537;28;46578;-68
2022/05/28 14:15:58;;;;;;;;;2.75;2.75;;;;;;;;5011650;28;45943;-68
2022/05/28 14:18:28;;;;;;;;;3.75;2.75;;;;;;;;5009755;28;45525;-68
2022/05/28 14:21:03;;;;;;;;;1.00;1.00;;;;;;;;4994431;28;45518;-68
2022/05/28 14:23:28;;;;;;;;;1.50;0.25;;;;;;;;4999374;28;48097;-68
2022/05/28 14:25:54;;;;;;;;;0.50;0.00;;;;;;;;5008232;28;45372;-68
2022/05/28 14:28:20;;;;;;;;;2.00;0.50;;;;;;;;5011745;28;45430;-67
2022/05/28 14:30:45;;;;;;;;;1.00;1.00;;;;;;;;4991231;28;45629;-68
2022/05/28 14:33:31;;;;;;;;;2.00;1.00;;;;;;;;4985144;28;47798;-68
2022/05/28 14:36:08;;;;;;;;;0.25;0.25;;;;;;;;5004820;28;45304;-69
2022/05/28 14:38:34;;;;;;;;;1.00;0.00;;;;;;;;4991210;28;45352;-69
2022/05/28 14:41:00;;;;;;;;;0.00;0.00;;;;;;;;5008276;28;45361;-67
2022/05/28 14:43:27;;;;;;;;;0.25;0.25;;;;;;;;5006469;28;45647;-69
2022/05/28 14:46:11;;;;;;;;;1.00;0.25;;;;;;;;5015065;28;45423;-69
2022/05/28 14:48:37;;;;;;;;;0.25;0.25;;;;;;;;5025601;28;45889;-68
2022/05/28 14:51:03;;;;;;;;;1.00;1.00;;;;;;;;5022047;28;46101;-67
2022/05/28 14:53:29;;;;;;;;;1.25;1.00;;;;;;;;5016984;28;47561;-68
2022/05/28 14:55:54;;;;;;;;;3.50;1.00;;;;;;;;5025703;28;45604;-67